Time;durP1;ratioP1;P1;durP2;ratioP2;P2;SDS_P1;SDS_P2;PMS_P1;PMS_P2;Temp;Humidity;BMP_temperature;BMP_pressure;BME280_temperature;BME280_humidity;BME280_pressure;Samples;Min_cycle;Max_cycle;Signal;HPM_P1;HPM_P2
2022/09/14 00:00:01;;;;;;;15.20;8.48;;;18.10;99.90;;;;;;5050536;28;20025;-53
2022/09/14 00:02:29;;;;;;;12.68;8.20;;;18.00;99.90;;;;;;5049976;28;20395;-52
2022/09/14 00:04:55;;;;;;;13.85;8.18;;;18.00;99.90;;;;;;5050921;28;20029;-52
2022/09/14 00:07:20;;;;;;;12.80;7.80;;;18.00;99.90;;;;;;5050550;28;20033;-53
2022/09/14 00:09:47;;;;;;;12.65;7.93;;;17.90;99.90;;;;;;5054137;28;20029;-52
2022/09/14 00:12:13;;;;;;;15.25;8.00;;;18.00;99.90;;;;;;5069488;28;20032;-52
2022/09/14 00:14:39;;;;;;;15.52;7.40;;;17.90;99.90;;;;;;5054102;28;20560;-52
2022/09/14 00:17:05;;;;;;;12.85;8.05;;;18.00;99.90;;;;;;5054225;28;20028;-52
2022/09/14 00:19:30;;;;;;;13.90;7.18;;;18.00;99.90;;;;;;5054394;28;20021;-52
2022/09/14 00:21:57;;;;;;;9.25;6.90;;;18.00;99.90;;;;;;5053805;28;20025;-52
2022/09/14 00:24:25;;;;;;;11.63;7.20;;;18.00;99.90;;;;;;5053516;28;20444;-52
2022/09/14 00:26:51;;;;;;;11.55;7.18;;;18.00;99.90;;;;;;5053556;28;20033;-51
2022/09/14 00:29:19;;;;;;;12.82;6.72;;;18.00;99.90;;;;;;5053628;28;20025;-51
2022/09/14 00:31:45;;;;;;;12.18;6.78;;;17.90;99.90;;;;;;5053802;28;20423;-52
2022/09/14 00:34:14;;;;;;;16.42;7.05;;;17.90;99.90;;;;;;5053489;28;20029;-52
2022/09/14 00:36:43;;;;;;;10.23;6.55;;;17.90;99.90;;;;;;5053592;28;20029;-52
2022/09/14 00:39:10;;;;;;;11.13;6.43;;;17.90;99.90;;;;;;5069009;28;20104;-52
2022/09/14 00:41:39;;;;;;;11.65;5.95;;;17.90;99.90;;;;;;5053370;28;20474;-52
2022/09/14 00:44:10;;;;;;;11.15;5.32;;;17.90;99.90;;;;;;5053203;28;20057;-53
2022/09/14 00:46:43;;;;;;;9.85;5.93;;;17.80;99.90;;;;;;5053595;28;20404;-52
2022/09/14 00:49:19;;;;;;;9.77;5.10;;;17.90;99.90;;;;;;5053263;28;20056;-53
2022/09/14 00:52:03;;;;;;;15.00;5.60;;;18.00;99.90;;;;;;5053420;28;20133;-53
2022/09/14 00:54:30;;;;;;;13.25;5.45;;;18.00;99.90;;;;;;5053034;28;20040;-52
2022/09/14 00:57:00;;;;;;;10.18;4.97;;;18.00;99.90;;;;;;5053434;28;20246;-53
2022/09/14 00:59:30;;;;;;;8.73;4.75;;;18.00;99.90;;;;;;5054017;28;20061;-52
2022/09/14 01:01:55;;;;;;;10.00;4.93;;;18.00;99.90;;;;;;5052518;28;20433;-52
2022/09/14 01:04:22;;;;;;;8.60;4.90;;;18.00;99.90;;;;;;5052928;28;20021;-52
2022/09/14 01:07:12;;;;;;;9.23;4.25;;;18.00;99.90;;;;;;5053077;28;20127;-53
2022/09/14 01:09:56;;;;;;;7.03;4.22;;;18.00;99.90;;;;;;5053042;28;20017;-52
2022/09/14 01:13:09;;;;;;;9.10;4.57;;;18.00;99.90;;;;;;5052858;28;20045;-52
2022/09/14 01:15:49;;;;;;;9.52;3.53;;;18.00;99.90;;;;;;5020833;28;20134;-52
2022/09/14 01:18:28;;;;;;;10.13;3.47;;;18.00;99.90;;;;;;5052966;28;20089;-52
2022/09/14 01:21:09;;;;;;;8.80;3.25;;;18.00;99.90;;;;;;5053121;28;20167;-53
2022/09/14 01:23:49;;;;;;;11.07;3.58;;;17.90;99.90;;;;;;5052924;28;20056;-53
2022/09/14 01:26:36;;;;;;;7.00;3.58;;;17.80;99.90;;;;;;5052439;28;20020;-53
2022/09/14 01:29:10;;;;;;;7.63;3.00;;;17.80;99.90;;;;;;5052865;28;20029;-53
2022/09/14 01:32:03;;;;;;;8.30;3.03;;;17.90;99.90;;;;;;5052616;28;20029;-52
2022/09/14 01:34:45;;;;;;;;;;;17.90;99.90;;;;;;5053462;28;20492;-52
2022/09/14 01:37:36;;;;;;;12.95;3.00;;;17.90;99.90;;;;;;5052505;28;19935;-53
2022/09/14 01:40:33;;;;;;;7.63;3.50;;;17.90;99.90;;;;;;5053023;28;20122;-52
2022/09/14 01:43:06;;;;;;;6.75;3.22;;;17.80;99.90;;;;;;5052489;28;20037;-52
2022/09/14 01:45:33;;;;;;;12.35;3.90;;;17.90;99.90;;;;;;5052849;28;20044;-52
2022/09/14 01:48:05;;;;;;;7.20;3.47;;;17.90;99.90;;;;;;5052641;28;20029;-52
2022/09/14 01:50:59;;;;;;;11.03;4.07;;;17.90;99.90;;;;;;5052188;28;20029;-52
2022/09/14 01:53:57;;;;;;;9.43;3.80;;;17.80;99.90;;;;;;5050494;28;20056;-52
2022/09/14 01:56:32;;;;;;;9.45;4.15;;;17.90;99.90;;;;;;5047821;28;20041;-52
2022/09/14 01:59:12;;;;;;;10.75;4.10;;;17.80;99.90;;;;;;5052094;28;20027;-52
2022/09/14 02:01:47;;;;;;;8.23;3.72;;;17.70;99.90;;;;;;5051909;28;20045;-52
2022/09/14 02:04:17;;;;;;;9.57;3.38;;;17.60;99.90;;;;;;5051978;28;20020;-52
2022/09/14 02:06:46;;;;;;;10.38;3.75;;;17.60;99.90;;;;;;5051916;28;20021;-53
2022/09/14 02:09:18;;;;;;;9.07;3.47;;;17.60;99.90;;;;;;5052233;28;20108;-55
2022/09/14 02:11:45;;;;;;;8.15;3.47;;;17.50;99.90;;;;;;5051438;28;20033;-55
2022/09/14 02:14:11;;;;;;;10.45;3.60;;;17.50;99.90;;;;;;5051863;28;20029;-54
2022/09/14 02:16:37;;;;;;;8.60;3.70;;;17.40;99.90;;;;;;5051775;28;20121;-54
2022/09/14 02:19:03;;;;;;;13.02;3.88;;;17.40;99.90;;;;;;5051937;28;20029;-53
2022/09/14 02:21:31;;;;;;;7.15;3.95;;;17.40;99.90;;;;;;5067411;28;20475;-53
2022/09/14 02:23:58;;;;;;;6.75;3.38;;;17.40;99.90;;;;;;5052072;28;20086;-52
2022/09/14 02:26:24;;;;;;;10.80;3.92;;;17.30;99.90;;;;;;5051359;28;20032;-52
2022/09/14 02:28:54;;;;;;;11.38;3.78;;;17.30;99.90;;;;;;5051431;28;20056;-52
2022/09/14 02:31:32;;;;;;;8.00;3.80;;;17.30;99.90;;;;;;5049840;28;20496;-52
2022/09/14 02:34:21;;;;;;;9.20;3.60;;;17.30;99.90;;;;;;5051370;28;20027;-52
2022/09/14 02:37:08;;;;;;;10.60;4.03;;;17.20;99.90;;;;;;5049959;28;20124;-53
2022/09/14 02:39:51;;;;;;;6.90;3.50;;;17.20;99.90;;;;;;5051238;28;20021;-53
2022/09/14 02:42:33;;;;;;;13.50;4.20;;;17.30;99.90;;;;;;5050868;28;20029;-53
2022/09/14 02:45:34;;;;;;;9.32;4.00;;;17.30;99.90;;;;;;5051269;28;20366;-53
2022/09/14 02:48:06;;;;;;;7.68;3.60;;;17.20;99.90;;;;;;5051269;28;20508;-54
2022/09/14 02:50:53;;;;;;;7.78;4.05;;;17.20;99.90;;;;;;5050976;28;20108;-56
2022/09/14 02:53:27;;;;;;;7.53;3.92;;;17.20;99.90;;;;;;5049798;28;20067;-56
2022/09/14 02:56:02;;;;;;;8.75;4.20;;;17.10;99.90;;;;;;5051150;28;20028;-56
2022/09/14 02:58:41;;;;;;;9.40;3.80;;;17.10;99.90;;;;;;5051386;28;20106;-56
2022/09/14 03:01:10;;;;;;;7.93;4.15;;;17.10;99.90;;;;;;5050414;28;20049;-56
2022/09/14 03:03:36;;;;;;;11.60;4.53;;;17.00;99.90;;;;;;5050840;28;20056;-55
2022/09/14 03:06:03;;;;;;;9.10;4.70;;;16.90;99.90;;;;;;5050695;28;20056;-54
2022/09/14 03:08:29;;;;;;;8.05;4.97;;;17.00;99.90;;;;;;5050792;28;20505;-54
2022/09/14 03:10:54;;;;;;;9.48;4.93;;;16.90;99.90;;;;;;5050826;28;20035;-54
2022/09/14 03:13:20;;;;;;;9.70;5.15;;;16.80;99.90;;;;;;5050641;28;20025;-53
2022/09/14 03:15:46;;;;;;;13.43;5.50;;;16.80;99.90;;;;;;5066031;28;20029;-53
2022/09/14 03:18:12;;;;;;;14.70;5.68;;;16.80;99.90;;;;;;5049496;28;20029;-53
2022/09/14 03:20:38;;;;;;;10.43;6.13;;;16.90;99.90;;;;;;5050596;28;20029;-52
2022/09/14 03:23:04;;;;;;;10.60;5.82;;;16.90;99.90;;;;;;5050608;28;20389;-51
2022/09/14 03:25:34;;;;;;;15.38;6.85;;;17.00;99.90;;;;;;5050545;28;20037;-51
2022/09/14 03:28:00;;;;;;;12.77;6.15;;;17.00;99.90;;;;;;5050521;28;20083;-53
2022/09/14 03:30:26;;;;;;;12.18;6.45;;;17.00;99.90;;;;;;5065931;28;20025;-52
2022/09/14 03:32:52;;;;;;;13.13;6.60;;;17.00;99.90;;;;;;5065604;28;20036;-52
2022/09/14 03:35:18;;;;;;;11.88;6.72;;;17.20;99.90;;;;;;5050466;28;20029;-52
2022/09/14 03:37:45;;;;;;;13.00;7.30;;;17.20;99.90;;;;;;5050205;28;20029;-52
2022/09/14 03:40:12;;;;;;;15.40;8.20;;;17.10;99.90;;;;;;5050262;28;20432;-52
2022/09/14 03:42:44;;;;;;;12.23;7.88;;;17.10;99.90;;;;;;5050821;28;20111;-52
2022/09/14 03:45:11;;;;;;;13.27;8.50;;;17.00;99.90;;;;;;5053986;28;20029;-52
2022/09/14 03:47:37;;;;;;;13.40;7.88;;;16.90;99.90;;;;;;5054251;28;20064;-52
2022/09/14 03:50:03;;;;;;;12.77;7.90;;;16.80;99.90;;;;;;5054352;28;20036;-52
2022/09/14 03:52:28;;;;;;;13.82;8.38;;;16.80;99.90;;;;;;5054327;28;20029;-53
2022/09/14 03:54:54;;;;;;;15.60;8.10;;;16.80;99.90;;;;;;5053914;28;20430;-57
2022/09/14 03:57:19;;;;;;;17.15;8.73;;;16.70;99.90;;;;;;5054369;28;20068;-58
2022/09/14 03:59:45;;;;;;;13.52;8.30;;;16.80;99.90;;;;;;5054366;28;20056;-57
2022/09/14 04:02:11;;;;;;;12.63;8.45;;;16.80;99.90;;;;;;5053818;28;20564;-58
2022/09/14 04:04:36;;;;;;;11.85;9.00;;;16.70;99.90;;;;;;5054211;28;20536;-58
2022/09/14 04:07:02;;;;;;;17.52;9.73;;;16.60;99.90;;;;;;5053845;28;20531;-57
2022/09/14 04:09:28;;;;;;;16.40;10.32;;;16.60;99.90;;;;;;5054137;28;20477;-57
2022/09/14 04:11:53;;;;;;;15.93;10.52;;;16.60;99.90;;;;;;5053558;28;20072;-57
2022/09/14 04:14:19;;;;;;;16.15;10.63;;;16.70;99.90;;;;;;5053674;28;20092;-57
2022/09/14 04:16:44;;;;;;;17.90;11.38;;;16.70;99.90;;;;;;5053574;28;20079;-56
2022/09/14 04:19:11;;;;;;;13.73;11.23;;;16.60;99.90;;;;;;5053751;28;20029;-56
2022/09/14 04:21:37;;;;;;;12.65;10.77;;;16.60;99.90;;;;;;5053767;28;20036;-56
2022/09/14 04:24:03;;;;;;;20.42;11.45;;;16.50;99.90;;;;;;5053423;28;20386;-55
2022/09/14 04:26:30;;;;;;;19.77;11.45;;;16.50;99.90;;;;;;5053562;28;20021;-56
2022/09/14 04:28:56;;;;;;;19.52;12.75;;;16.60;99.90;;;;;;5054078;28;20025;-56
2022/09/14 04:31:23;;;;;;;18.88;12.82;;;16.50;99.90;;;;;;5053213;28;20071;-56
2022/09/14 04:33:50;;;;;;;13.63;11.55;;;16.50;99.90;;;;;;5053641;28;20635;-55
2022/09/14 04:36:21;;;;;;;15.05;12.15;;;16.40;99.90;;;;;;5053331;28;20037;-55
2022/09/14 04:38:47;;;;;;;18.00;13.00;;;16.30;99.90;;;;;;5053948;28;20037;-52
2022/09/14 04:41:19;;;;;;;16.38;12.48;;;16.40;99.90;;;;;;5052906;28;20496;-52
2022/09/14 04:43:45;;;;;;;19.60;14.23;;;16.40;99.90;;;;;;5068686;28;20477;-51
2022/09/14 04:46:18;;;;;;;18.75;14.07;;;16.40;99.90;;;;;;5053049;28;20052;-51
2022/09/14 04:48:44;;;;;;;;;;;16.40;99.90;;;;;;5053873;28;20389;-51
2022/09/14 04:51:21;;;;;;;14.23;12.63;;;16.40;99.90;;;;;;5068294;28;19905;-50
2022/09/14 04:53:49;;;;;;;16.30;13.88;;;16.40;99.90;;;;;;5052618;28;20031;-50
2022/09/14 04:56:15;;;;;;;18.02;14.13;;;16.40;99.90;;;;;;5052830;28;20025;-51
2022/09/14 04:58:46;;;;;;;17.27;14.52;;;16.30;99.90;;;;;;5053276;28;20029;-50
2022/09/14 05:01:14;;;;;;;19.20;14.77;;;16.30;99.90;;;;;;5052625;28;20100;-50
2022/09/14 05:03:40;;;;;;;16.95;14.15;;;16.30;99.90;;;;;;5052858;28;20033;-50
2022/09/14 05:06:12;;;;;;;17.45;14.18;;;16.20;99.90;;;;;;5051228;28;20086;-50
2022/09/14 05:08:38;;;;;;;17.93;15.13;;;16.30;99.90;;;;;;5052778;28;20029;-50
2022/09/14 05:11:05;;;;;;;17.50;15.65;;;16.20;99.90;;;;;;5052747;28;20270;-50
2022/09/14 05:13:32;;;;;;;18.13;16.23;;;16.20;99.90;;;;;;5052885;28;20031;-50
2022/09/14 05:16:08;;;;;;;18.83;16.50;;;16.20;99.90;;;;;;5052427;28;20083;-51
2022/09/14 05:18:34;;;;;;;20.75;16.98;;;16.20;99.90;;;;;;5053136;28;20025;-50
2022/09/14 05:21:02;;;;;;;19.33;17.25;;;16.20;99.90;;;;;;5052218;28;20054;-51
2022/09/14 05:23:28;;;;;;;19.85;17.67;;;16.20;99.90;;;;;;5052463;28;20036;-51
2022/09/14 05:25:53;;;;;;;20.17;17.20;;;16.30;99.90;;;;;;5052129;28;20021;-51
2022/09/14 05:28:19;;;;;;;18.73;16.85;;;16.30;99.90;;;;;;5052416;28;20409;-51
2022/09/14 05:30:44;;;;;;;18.63;16.63;;;16.20;99.90;;;;;;5051996;28;20497;-51
2022/09/14 05:33:10;;;;;;;21.63;19.10;;;16.20;99.90;;;;;;5052559;28;20028;-52
2022/09/14 05:35:36;;;;;;;21.10;18.90;;;16.20;99.90;;;;;;5052132;28;20580;-52
2022/09/14 05:38:01;;;;;;;20.33;18.13;;;16.30;99.90;;;;;;5052114;28;20024;-50
2022/09/14 05:40:27;;;;;;;20.00;17.92;;;16.20;99.90;;;;;;5052690;28;20022;-53
2022/09/14 05:42:52;;;;;;;22.10;19.80;;;16.20;99.90;;;;;;5067270;28;20363;-53
2022/09/14 05:45:18;;;;;;;21.40;19.13;;;16.20;99.90;;;;;;5052424;28;20025;-53
2022/09/14 05:47:43;;;;;;;20.50;18.52;;;16.30;99.90;;;;;;5052585;28;20493;-53
2022/09/14 05:50:09;;;;;;;20.58;18.45;;;16.20;99.90;;;;;;5052506;28;20083;-53
2022/09/14 05:52:35;;;;;;;21.92;19.73;;;16.30;99.90;;;;;;5051032;28;20037;-53
2022/09/14 05:55:01;;;;;;;23.70;19.38;;;16.20;99.90;;;;;;5043310;28;20389;-52
2022/09/14 05:57:26;;;;;;;22.77;19.77;;;16.30;99.90;;;;;;5044025;28;20115;-53
2022/09/14 05:59:52;;;;;;;23.17;20.45;;;16.30;99.90;;;;;;5040185;28;20034;-53
2022/09/14 06:02:17;;;;;;;23.85;21.25;;;16.30;99.90;;;;;;5034603;28;20511;-56
2022/09/14 06:04:43;;;;;;;25.08;20.98;;;16.40;99.90;;;;;;5041042;28;20055;-55
2022/09/14 06:07:09;;;;;;;23.83;21.33;;;16.30;99.90;;;;;;5039729;28;20033;-55
2022/09/14 06:09:34;;;;;;;26.45;23.60;;;16.30;99.90;;;;;;5034064;28;20225;-55
2022/09/14 06:12:00;;;;;;;27.70;24.42;;;16.30;99.90;;;;;;5038854;28;20180;-54
2022/09/14 06:14:26;;;;;;;28.17;24.73;;;16.40;99.90;;;;;;5032615;28;20040;-55
2022/09/14 06:16:51;;;;;;;29.10;25.88;;;16.30;99.90;;;;;;5032361;28;20036;-58
2022/09/14 06:19:17;;;;;;;34.58;26.27;;;16.20;99.90;;;;;;5033482;28;20029;-56
2022/09/14 06:21:42;;;;;;;27.92;24.83;;;16.20;99.90;;;;;;5036099;28;20074;-59
2022/09/14 06:24:11;;;;;;;31.13;25.55;;;16.30;99.90;;;;;;5033759;28;20168;-58
2022/09/14 06:26:37;;;;;;;32.40;25.90;;;16.30;99.90;;;;;;5030207;28;20033;-58
2022/09/14 06:29:03;;;;;;;29.38;25.10;;;16.30;99.90;;;;;;5047735;28;20561;-57
2022/09/14 06:31:28;;;;;;;29.33;25.40;;;16.30;99.90;;;;;;5033885;28;20044;-57
2022/09/14 06:33:54;;;;;;;32.33;26.27;;;16.30;99.90;;;;;;5045437;28;20024;-57
2022/09/14 06:36:24;;;;;;;33.40;25.70;;;16.30;99.90;;;;;;5031783;28;20032;-57
2022/09/14 06:38:50;;;;;;;32.78;27.27;;;16.30;99.90;;;;;;5048103;28;20449;-56
2022/09/14 06:41:20;;;;;;;40.78;29.15;;;16.30;99.90;;;;;;5039331;28;20456;-57
2022/09/14 06:43:46;;;;;;;34.25;28.77;;;16.30;99.90;;;;;;5034772;28;20485;-56
2022/09/14 06:46:24;;;;;;;34.80;28.02;;;16.20;99.90;;;;;;5034398;28;20036;-57
2022/09/14 06:49:01;;;;;;;33.85;27.73;;;16.20;99.90;;;;;;5036377;28;20033;-57
2022/09/14 06:51:31;;;;;;;37.65;28.73;;;16.20;99.90;;;;;;5031029;28;20570;-58
2022/09/14 06:53:58;;;;;;;38.42;30.13;;;16.20;99.90;;;;;;5035411;28;20028;-56
2022/09/14 06:56:25;;;;;;;40.58;29.73;;;16.30;99.90;;;;;;5029640;28;20036;-57
2022/09/14 06:58:52;;;;;;;39.03;29.48;;;16.20;99.90;;;;;;5031906;28;20032;-56
2022/09/14 07:01:18;;;;;;;42.40;31.88;;;16.30;99.90;;;;;;5032425;28;20119;-57
2022/09/14 07:03:45;;;;;;;39.90;30.60;;;16.30;99.90;;;;;;5031628;28;20025;-56
2022/09/14 07:06:26;;;;;;;44.42;31.50;;;16.30;99.90;;;;;;5026665;28;20029;-56
2022/09/14 07:08:52;;;;;;;40.55;30.73;;;16.40;99.90;;;;;;5034663;28;20069;-57
2022/09/14 07:11:20;;;;;;;43.90;31.42;;;16.40;99.90;;;;;;5028916;28;20533;-56
2022/09/14 07:13:47;;;;;;;41.30;29.65;;;16.40;99.90;;;;;;5027291;28;20409;-58
2022/09/14 07:16:13;;;;;;;43.78;30.80;;;16.30;99.90;;;;;;5032144;28;20025;-58
2022/09/14 07:18:40;;;;;;;40.67;29.75;;;16.30;99.90;;;;;;5036012;28;20123;-57
2022/09/14 07:21:13;;;;;;;40.15;29.83;;;16.20;99.90;;;;;;5032120;28;20028;-57
2022/09/14 07:23:41;;;;;;;41.20;28.55;;;16.40;99.90;;;;;;5040356;28;20067;-58
2022/09/14 07:26:10;;;;;;;39.33;29.25;;;16.40;99.90;;;;;;5033847;28;20040;-58
2022/09/14 07:28:36;;;;;;;36.45;27.15;;;16.40;99.90;;;;;;5034113;28;20040;-58
2022/09/14 07:31:04;;;;;;;34.20;25.58;;;16.40;99.90;;;;;;5032316;28;20025;-59
2022/09/14 07:33:30;;;;;;;32.40;25.27;;;16.30;99.90;;;;;;5034578;28;21809;-57
2022/09/14 07:36:07;;;;;;;37.78;27.98;;;16.30;99.90;;;;;;5037530;28;20036;-57
2022/09/14 07:38:33;;;;;;;40.67;29.52;;;16.40;99.90;;;;;;5034205;28;20113;-57
2022/09/14 07:40:59;;;;;;;36.08;28.27;;;16.40;99.90;;;;;;5034014;28;20057;-55
2022/09/14 07:43:24;;;;;;;35.00;27.40;;;16.30;99.90;;;;;;5036487;28;20103;-57
2022/09/14 07:45:50;;;;;;;35.50;26.55;;;16.40;99.90;;;;;;5037429;28;20564;-57
2022/09/14 07:48:15;;;;;;;32.55;26.17;;;16.30;99.90;;;;;;5035199;28;20053;-56
2022/09/14 07:50:41;;;;;;;40.58;28.30;;;16.40;99.90;;;;;;5036114;28;20044;-58
2022/09/14 07:53:07;;;;;;;43.80;30.20;;;16.50;99.90;;;;;;5045174;28;20033;-60
2022/09/14 07:55:32;;;;;;;39.28;28.75;;;16.50;99.90;;;;;;5038081;28;20120;-56
2022/09/14 07:57:58;;;;;;;33.63;27.63;;;16.50;99.90;;;;;;5037831;28;20021;-55
2022/09/14 08:00:24;;;;;;;33.72;24.85;;;16.50;99.90;;;;;;5032161;28;20033;-56
2022/09/14 08:02:51;;;;;;;33.83;26.42;;;16.50;99.90;;;;;;5024487;28;20029;-56
2022/09/14 08:05:18;;;;;;;31.92;24.40;;;16.50;99.90;;;;;;5034411;28;20036;-57
2022/09/14 08:07:44;;;;;;;28.38;22.90;;;16.50;99.90;;;;;;5034736;28;20155;-55
2022/09/14 08:10:10;;;;;;;26.92;21.20;;;16.50;99.90;;;;;;5031802;28;20037;-55
2022/09/14 08:12:35;;;;;;;27.63;21.35;;;16.50;99.90;;;;;;5032688;28;20032;-55
2022/09/14 08:15:01;;;;;;;27.42;20.92;;;16.60;99.90;;;;;;5033204;28;20036;-54
2022/09/14 08:17:27;;;;;;;26.70;20.45;;;16.60;99.90;;;;;;5018123;28;20507;-53
2022/09/14 08:19:54;;;;;;;25.42;20.20;;;16.70;99.90;;;;;;5027171;28;20029;-54
2022/09/14 08:22:20;;;;;;;25.20;18.80;;;16.70;99.90;;;;;;5031837;28;20124;-54
2022/09/14 08:24:45;;;;;;;23.20;18.45;;;16.70;99.90;;;;;;5035400;28;20041;-53
2022/09/14 08:27:11;;;;;;;23.67;17.98;;;16.70;99.90;;;;;;5036737;28;20123;-53
2022/09/14 08:29:38;;;;;;;18.90;16.90;;;16.80;99.90;;;;;;5021321;28;20703;-53
2022/09/14 08:32:04;;;;;;;20.27;17.00;;;16.80;99.90;;;;;;5030724;28;20036;-53
2022/09/14 08:34:30;;;;;;;19.45;16.75;;;16.90;99.90;;;;;;5026616;28;20033;-53
2022/09/14 08:36:56;;;;;;;17.70;15.90;;;16.90;99.90;;;;;;5028989;28;20307;-53
2022/09/14 08:39:21;;;;;;;18.80;16.80;;;16.90;99.90;;;;;;5033854;28;20153;-53
2022/09/14 08:41:59;;;;;;;18.40;16.52;;;16.90;99.90;;;;;;5032335;28;20616;-53
2022/09/14 08:44:45;;;;;;;16.63;14.85;;;17.00;99.90;;;;;;5036039;28;20551;-52
2022/09/14 08:47:11;;;;;;;14.43;13.02;;;16.80;99.90;;;;;;5038221;28;20067;-53
2022/09/14 08:49:47;;;;;;;13.88;12.48;;;16.80;99.90;;;;;;5032994;28;20163;-54
2022/09/14 08:52:22;;;;;;;13.88;12.48;;;16.90;99.90;;;;;;5031178;28;20397;-53
2022/09/14 08:54:51;;;;;;;11.30;10.10;;;16.90;99.90;;;;;;5025927;28;20040;-53
2022/09/14 08:57:28;;;;;;;11.57;10.38;;;16.90;99.90;;;;;;5029889;28;20037;-52
2022/09/14 09:00:10;;;;;;;13.00;11.63;;;17.00;99.90;;;;;;5031430;28;20028;-52
2022/09/14 09:02:54;;;;;;;11.40;10.30;;;17.10;99.90;;;;;;5035346;28;20045;-53
2022/09/14 09:05:50;;;;;;;12.20;11.05;;;17.10;99.90;;;;;;5031669;28;20048;-53
2022/09/14 09:08:34;;;;;;;12.45;11.20;;;17.10;99.90;;;;;;5038100;28;20788;-52
2022/09/14 09:11:04;;;;;;;11.60;10.50;;;17.00;99.90;;;;;;5032938;28;20025;-52
2022/09/14 09:13:34;;;;;;;11.98;10.85;;;17.00;99.90;;;;;;5032682;28;20397;-53
2022/09/14 09:16:05;;;;;;;13.45;12.23;;;17.00;99.90;;;;;;5039193;28;20063;-53
2022/09/14 09:18:46;;;;;;;14.38;12.98;;;17.20;99.90;;;;;;5029511;28;20162;-53
2022/09/14 09:21:14;;;;;;;13.48;12.18;;;17.20;99.90;;;;;;5032379;28;20105;-53
2022/09/14 09:23:40;;;;;;;13.32;12.20;;;17.20;99.90;;;;;;5029037;28;20044;-53
2022/09/14 09:26:31;;;;;;;13.35;12.05;;;17.10;99.90;;;;;;5035513;28;20543;-53
2022/09/14 09:29:00;;;;;;;14.43;12.95;;;17.20;99.90;;;;;;5029859;28;20063;-53
2022/09/14 09:31:33;;;;;;;13.50;12.10;;;17.20;99.90;;;;;;5041661;28;20035;-51
2022/09/14 09:34:00;;;;;;;13.85;12.52;;;17.30;99.90;;;;;;5030743;28;20028;-53
2022/09/14 09:36:35;;;;;;;14.82;13.20;;;17.20;99.90;;;;;;5032852;28;20111;-54
2022/09/14 09:39:01;;;;;;;14.80;13.43;;;17.10;99.90;;;;;;5039962;28;20032;-53
2022/09/14 09:41:30;;;;;;;14.80;13.40;;;17.20;99.90;;;;;;5040307;28;20047;-54
2022/09/14 09:44:08;;;;;;;15.05;13.55;;;17.10;99.90;;;;;;5037008;28;20762;-53
2022/09/14 09:46:47;;;;;;;15.05;13.75;;;17.20;99.90;;;;;;5036021;28;20497;-53
2022/09/14 09:49:35;;;;;;;15.00;13.55;;;17.20;99.90;;;;;;5038027;28;20036;-52
2022/09/14 09:52:08;;;;;;;15.00;13.60;;;17.00;99.90;;;;;;5035601;28;20055;-53
2022/09/14 09:54:36;;;;;;;16.00;14.50;;;16.90;99.90;;;;;;5032713;28;20080;-51
2022/09/14 09:57:05;;;;;;;16.02;14.43;;;16.90;99.90;;;;;;5034852;28;20438;-53
2022/09/14 09:59:35;;;;;;;14.95;13.48;;;16.80;99.90;;;;;;5035493;28;20028;-52
2022/09/14 10:02:26;;;;;;;14.35;12.90;;;16.90;99.90;;;;;;5035378;28;20053;-53
2022/09/14 10:05:08;;;;;;;14.48;12.98;;;16.80;99.90;;;;;;5035567;28;20032;-53
2022/09/14 10:07:40;;;;;;;14.48;12.98;;;16.80;99.90;;;;;;5027679;28;20032;-53
2022/09/14 10:10:10;;;;;;;13.63;12.43;;;16.70;99.90;;;;;;5037655;28;20500;-52
2022/09/14 10:12:38;;;;;;;15.73;14.15;;;16.80;99.90;;;;;;5025188;28;20133;-52
2022/09/14 10:15:36;;;;;;;14.52;13.02;;;17.10;99.90;;;;;;5035579;28;20021;-52
2022/09/14 10:18:12;;;;;;;13.98;12.70;;;17.10;99.90;;;;;;5046326;28;20442;-53
2022/09/14 10:20:57;;;;;;;14.38;13.07;;;17.10;99.90;;;;;;5037327;28;20116;-52
2022/09/14 10:23:26;;;;;;;15.48;13.23;;;17.10;99.90;;;;;;5033140;28;20044;-53
2022/09/14 10:26:13;;;;;;;14.65;13.25;;;17.20;99.90;;;;;;5044762;28;20086;-53
2022/09/14 10:28:44;;;;;;;14.60;13.20;;;17.00;99.90;;;;;;5036643;28;20033;-51
2022/09/14 10:31:19;;;;;;;14.07;12.70;;;17.10;99.90;;;;;;5034523;28;20532;-53
2022/09/14 10:33:46;;;;;;;14.40;12.93;;;17.10;99.90;;;;;;5035338;28;20382;-54
2022/09/14 10:36:23;;;;;;;13.88;12.48;;;17.00;99.90;;;;;;5041184;28;20079;-52
2022/09/14 10:39:07;;;;;;;13.95;11.95;;;17.00;99.90;;;;;;5045691;28;20175;-54
2022/09/14 10:41:54;;;;;;;12.45;11.25;;;17.10;99.90;;;;;;5046507;28;20056;-54
2022/09/14 10:44:46;;;;;;;17.85;12.88;;;17.10;99.90;;;;;;5050602;28;20017;-53
2022/09/14 10:47:43;;;;;;;17.63;12.37;;;17.10;99.90;;;;;;5041702;28;20032;-52
2022/09/14 10:50:28;;;;;;;13.77;12.52;;;17.10;99.90;;;;;;5051077;28;20279;-52
2022/09/14 10:53:12;;;;;;;13.65;12.13;;;17.20;99.90;;;;;;5037264;28;20494;-52
2022/09/14 10:56:09;;;;;;;15.02;12.05;;;17.30;99.90;;;;;;5044734;28;20032;-52
2022/09/14 10:58:52;;;;;;;16.50;13.68;;;17.40;99.90;;;;;;5039226;28;20127;-52
2022/09/14 11:01:57;;;;;;;18.17;16.30;;;17.60;99.90;;;;;;5041946;28;20049;-52
2022/09/14 11:04:59;;;;;;;18.20;16.33;;;17.60;99.90;;;;;;5043787;28;20045;-52
2022/09/14 11:07:51;;;;;;;18.95;16.52;;;17.30;99.90;;;;;;5034022;28;20049;-51
2022/09/14 11:10:33;;;;;;;19.55;16.58;;;17.10;99.90;;;;;;5043489;28;20032;-52
2022/09/14 11:13:11;;;;;;;19.57;16.53;;;17.20;99.90;;;;;;5057840;28;20030;-52
2022/09/14 11:15:51;;;;;;;17.20;15.40;;;17.20;99.90;;;;;;5041076;28;20108;-52
2022/09/14 11:18:50;;;;;;;21.80;16.45;;;17.10;99.90;;;;;;5045058;28;20029;-52
2022/09/14 11:21:21;;;;;;;22.15;17.95;;;17.40;99.90;;;;;;5036119;28;20029;-53
2022/09/14 11:24:02;;;;;;;20.30;15.97;;;17.40;99.90;;;;;;5046467;28;20037;-51
2022/09/14 11:26:37;;;;;;;20.02;17.83;;;17.30;99.90;;;;;;5046415;28;20039;-50
2022/09/14 11:29:43;;;;;;;21.70;18.42;;;17.40;99.90;;;;;;5042350;28;20033;-50
2022/09/14 11:32:21;;;;;;;24.40;20.60;;;17.30;99.90;;;;;;5046781;28;20032;-52
2022/09/14 11:35:10;;;;;;;21.98;19.08;;;17.30;99.90;;;;;;5051797;28;20037;-51
2022/09/14 11:37:46;;;;;;;24.10;18.38;;;17.30;99.90;;;;;;5043039;28;20021;-53
2022/09/14 11:40:25;;;;;;;21.58;18.45;;;17.20;99.90;;;;;;5048546;28;20025;-52
2022/09/14 11:43:10;;;;;;;23.83;19.48;;;17.30;99.90;;;;;;5051084;28;20029;-52
2022/09/14 11:45:47;;;;;;;25.63;20.45;;;17.30;99.90;;;;;;5032668;28;20053;-51
2022/09/14 11:48:35;;;;;;;28.15;23.30;;;17.40;99.90;;;;;;5035687;28;20485;-52
2022/09/14 11:51:19;;;;;;;29.08;24.33;;;17.40;99.90;;;;;;5049718;28;20212;-52
2022/09/14 11:53:45;;;;;;;27.80;23.73;;;17.30;99.90;;;;;;5054289;28;20066;-52
2022/09/14 11:56:25;;;;;;;32.33;25.13;;;17.20;99.90;;;;;;5042331;28;20035;-51
2022/09/14 11:59:05;;;;;;;29.40;23.85;;;17.30;99.90;;;;;;5047409;28;20131;-52
2022/09/14 12:01:36;;;;;;;29.70;22.90;;;17.30;99.90;;;;;;5050314;28;20064;-52
2022/09/14 12:04:11;;;;;;;26.95;22.15;;;17.40;99.90;;;;;;5037305;28;20488;-52
2022/09/14 12:06:37;;;;;;;27.05;22.33;;;17.30;99.90;;;;;;5042999;28;20032;-52
2022/09/14 12:09:21;;;;;;;24.75;20.77;;;17.30;99.90;;;;;;5035793;28;20041;-52
2022/09/14 12:11:48;;;;;;;24.90;22.08;;;17.30;99.90;;;;;;5042498;28;20044;-53
2022/09/14 12:14:23;;;;;;;24.35;20.38;;;17.20;99.90;;;;;;5054045;28;20496;-52
2022/09/14 12:17:16;;;;;;;23.88;21.10;;;17.20;99.90;;;;;;5048722;28;20029;-52
2022/09/14 12:19:46;;;;;;;22.65;19.60;;;17.20;99.90;;;;;;5051584;28;20021;-52
2022/09/14 12:22:26;;;;;;;25.00;19.95;;;17.30;99.90;;;;;;5048723;28;20025;-52
2022/09/14 12:25:09;;;;;;;22.13;18.95;;;17.30;99.90;;;;;;5051614;28;20033;-52
2022/09/14 12:27:38;;;;;;;;;;;17.20;99.90;;;;;;5051909;28;20049;-52
2022/09/14 12:30:53;;;;;;;21.00;18.10;;;17.30;99.90;;;;;;5051574;28;20357;-52
2022/09/14 12:33:31;;;;;;;19.67;17.58;;;17.20;99.90;;;;;;5022820;28;20494;-53
2022/09/14 12:36:19;;;;;;;20.42;18.30;;;17.20;99.90;;;;;;5042144;28;20032;-53
2022/09/14 12:38:54;;;;;;;25.73;20.92;;;17.40;99.90;;;;;;5044698;28;20021;-50
2022/09/14 12:41:19;;;;;;;21.75;19.17;;;17.70;99.90;;;;;;5040011;28;20031;-50
2022/09/14 12:43:48;;;;;;;23.00;20.10;;;17.70;99.90;;;;;;5053884;28;20397;-50
2022/09/14 12:46:19;;;;;;;21.88;19.17;;;17.80;99.90;;;;;;5048350;28;20482;-52
2022/09/14 12:48:47;;;;;;;27.40;18.02;;;17.80;99.90;;;;;;5033432;28;20034;-52
2022/09/14 12:51:28;;;;;;;24.35;19.75;;;17.70;99.90;;;;;;5036753;28;20076;-52
2022/09/14 12:54:07;;;;;;;22.33;19.00;;;17.80;99.90;;;;;;5032943;28;20034;-52
2022/09/14 12:56:51;;;;;;;22.23;17.77;;;17.60;99.90;;;;;;5044981;28;20046;-52
2022/09/14 12:59:47;;;;;;;20.10;17.05;;;17.60;99.90;;;;;;5049439;28;20506;-52